Time;durP1;ratioP1;P1;durP2;ratioP2;P2;SDS_P1;SDS_P2;PMS_P1;PMS_P2;Temp;Humidity;BMP_temperature;BMP_pressure;BME280_temperature;BME280_humidity;BME280_pressure;Samples;Min_cycle;Max_cycle;Signal;HPM_P1;HPM_P2
2022/05/22 00:02:20;;;;;;;6.30;4.03;;;16.30;71.30;;;;;;5017055;28;20535;-47
2022/05/22 00:04:47;;;;;;;8.50;3.63;;;16.30;71.10;;;;;;4999931;28;20479;-47
2022/05/22 00:07:13;;;;;;;8.70;4.70;;;16.30;71.10;;;;;;5014280;28;20468;-47
2022/05/22 00:09:40;;;;;;;6.47;3.40;;;16.20;71.00;;;;;;5015311;28;20543;-47
2022/05/22 00:12:09;;;;;;;6.03;3.77;;;16.20;71.10;;;;;;5012947;28;20477;-47
2022/05/22 00:14:37;;;;;;;7.63;4.30;;;16.20;71.40;;;;;;5013348;28;20547;-47
2022/05/22 00:17:06;;;;;;;6.40;3.20;;;16.10;71.40;;;;;;5013954;28;20769;-47
2022/05/22 00:19:34;;;;;;;8.20;3.80;;;16.10;71.60;;;;;;5014939;28;20535;-47
2022/05/22 00:22:01;;;;;;;9.07;4.10;;;16.00;71.50;;;;;;4996295;28;20486;-47
2022/05/22 00:24:29;;;;;;;5.93;3.90;;;16.00;71.60;;;;;;4994436;28;20506;-47
2022/05/22 00:26:58;;;;;;;3.50;3.20;;;16.00;71.60;;;;;;4993957;28;20916;-47
2022/05/22 00:29:25;;;;;;;4.73;3.73;;;16.00;71.90;;;;;;5011719;28;20460;-47
2022/05/22 00:31:52;;;;;;;9.50;4.93;;;16.00;71.70;;;;;;5009566;28;20571;-46
2022/05/22 00:34:19;;;;;;;6.83;4.23;;;15.90;71.60;;;;;;5016543;28;20460;-47
2022/05/22 00:36:46;;;;;;;11.80;4.70;;;15.90;71.80;;;;;;5014792;28;20667;-47
2022/05/22 00:39:13;;;;;;;6.90;4.53;;;15.80;71.70;;;;;;5018862;28;20444;-47
2022/05/22 00:41:40;;;;;;;4.67;3.70;;;15.80;71.90;;;;;;5012068;28;20456;-47
2022/05/22 00:44:07;;;;;;;6.33;3.47;;;15.80;72.00;;;;;;5014366;28;20484;-47
2022/05/22 00:46:36;;;;;;;5.93;3.50;;;15.70;72.10;;;;;;5014659;28;20494;-47
2022/05/22 00:49:22;;;;;;;5.20;4.13;;;15.70;72.10;;;;;;5014251;28;20844;-47
2022/05/22 00:52:04;;;;;;;5.60;3.20;;;15.70;72.20;;;;;;5013076;28;20479;-47
2022/05/22 00:54:47;;;;;;;5.07;2.87;;;15.70;72.20;;;;;;5012472;28;20472;-47
2022/05/22 00:57:20;;;;;;;4.23;3.40;;;15.60;72.10;;;;;;5013452;28;20881;-47
2022/05/22 00:59:53;;;;;;;4.90;3.63;;;15.60;72.10;;;;;;5011883;28;20563;-47
2022/05/22 01:02:20;;;;;;;4.70;3.80;;;15.60;72.00;;;;;;4994777;28;20486;-47
2022/05/22 01:04:49;;;;;;;3.83;3.10;;;15.50;72.10;;;;;;5016103;28;20506;-47
2022/05/22 01:07:18;;;;;;;5.27;3.13;;;15.60;72.40;;;;;;5013132;28;20769;-47
2022/05/22 01:09:48;;;;;;;7.03;3.87;;;15.50;72.20;;;;;;5009687;28;20464;-47
2022/05/22 01:12:20;;;;;;;7.20;4.07;;;15.50;72.40;;;;;;5012449;28;20977;-47
2022/05/22 01:14:50;;;;;;;5.50;3.37;;;15.50;72.60;;;;;;5006472;28;20468;-47
2022/05/22 01:17:17;;;;;;;6.97;3.60;;;15.50;72.70;;;;;;5010564;28;20854;-47
2022/05/22 01:19:59;;;;;;;4.50;3.20;;;15.50;72.70;;;;;;5011355;28;20548;-47
2022/05/22 01:22:27;;;;;;;8.03;3.63;;;15.40;72.60;;;;;;4992852;28;20505;-47
2022/05/22 01:24:54;;;;;;;6.10;3.30;;;15.40;72.40;;;;;;4993913;28;20472;-47
2022/05/22 01:27:23;;;;;;;5.77;2.70;;;15.40;72.50;;;;;;5016126;28;20516;-47
2022/05/22 01:29:50;;;;;;;4.00;3.27;;;15.30;72.50;;;;;;4993992;28;20492;-47
2022/05/22 01:32:17;;;;;;;5.10;3.27;;;15.30;72.80;;;;;;5012918;28;20475;-46
2022/05/22 01:34:44;;;;;;;3.73;3.13;;;15.30;72.80;;;;;;5011370;28;20551;-47
2022/05/22 01:37:10;;;;;;;3.40;3.10;;;15.30;72.80;;;;;;5010976;28;20869;-47
2022/05/22 01:39:37;;;;;;;6.77;3.50;;;15.30;72.70;;;;;;5010900;28;20480;-47
2022/05/22 01:42:04;;;;;;;6.30;3.30;;;15.30;72.80;;;;;;5015726;28;20470;-47
2022/05/22 01:44:31;;;;;;;3.97;3.00;;;15.30;72.30;;;;;;4996415;28;20466;-47
2022/05/22 01:46:58;;;;;;;6.73;3.20;;;15.20;72.50;;;;;;4992785;28;20777;-47
2022/05/22 01:49:25;;;;;;;9.77;3.40;;;15.20;72.80;;;;;;5011706;28;20479;-47
2022/05/22 01:51:52;;;;;;;3.73;3.20;;;15.10;73.30;;;;;;5013432;28;20559;-47
2022/05/22 01:54:18;;;;;;;3.00;2.70;;;15.20;73.40;;;;;;5011900;28;20974;-47
2022/05/22 01:56:45;;;;;;;5.50;3.23;;;15.20;73.30;;;;;;5011359;28;20452;-47
2022/05/22 01:59:12;;;;;;;3.90;2.97;;;15.10;73.30;;;;;;5012112;28;20456;-47
2022/05/22 02:01:38;;;;;;;6.73;3.10;;;15.10;73.60;;;;;;4992085;28;20467;-47
2022/05/22 02:04:06;;;;;;;3.73;3.30;;;15.00;73.80;;;;;;5008443;28;20473;-47
2022/05/22 02:06:33;;;;;;;5.53;3.60;;;15.00;74.00;;;;;;5013384;28;20473;-47
2022/05/22 02:09:00;;;;;;;3.70;3.40;;;15.00;74.10;;;;;;5015542;28;20479;-47
2022/05/22 02:11:27;;;;;;;5.20;3.40;;;14.90;74.10;;;;;;5007544;28;20472;-47
2022/05/22 02:13:53;;;;;;;8.73;3.17;;;14.90;74.20;;;;;;5010915;28;20523;-47
2022/05/22 02:16:20;;;;;;;5.17;2.93;;;14.90;74.30;;;;;;4993597;28;20475;-47
2022/05/22 02:18:47;;;;;;;6.43;3.77;;;14.90;74.40;;;;;;5010133;28;20499;-47
2022/05/22 02:21:14;;;;;;;5.77;3.70;;;14.90;74.30;;;;;;5010729;28;20475;-47
2022/05/22 02:23:40;;;;;;;6.83;3.70;;;14.90;75.00;;;;;;5012779;28;20463;-47
2022/05/22 02:26:10;;;;;;;4.17;3.17;;;14.90;74.80;;;;;;5010348;28;21016;-46
2022/05/22 02:28:39;;;;;;;4.93;3.33;;;14.90;74.90;;;;;;5008840;28;20980;-47
2022/05/22 02:31:06;;;;;;;4.40;3.87;;;14.90;74.90;;;;;;5013319;28;20494;-46
2022/05/22 02:33:34;;;;;;;4.00;3.30;;;14.90;74.60;;;;;;5013999;28;20773;-46
2022/05/22 02:36:05;;;;;;;5.00;3.23;;;14.90;74.50;;;;;;5011408;28;20995;-47
2022/05/22 02:38:33;;;;;;;3.47;3.10;;;14.90;74.70;;;;;;5012347;28;21013;-46
2022/05/22 02:41:06;;;;;;;6.97;3.57;;;14.90;74.50;;;;;;5010784;28;20457;-47
2022/05/22 02:43:33;;;;;;;5.30;3.73;;;14.90;74.00;;;;;;5014635;28;20460;-47
2022/05/22 02:46:00;;;;;;;4.90;3.03;;;14.90;73.80;;;;;;4994415;28;20464;-46
2022/05/22 02:48:26;;;;;;;3.33;3.03;;;14.80;73.90;;;;;;5012454;28;20484;-46
2022/05/22 02:50:53;;;;;;;3.83;3.10;;;14.80;74.10;;;;;;4992482;28;20820;-46
2022/05/22 02:53:20;;;;;;;3.33;3.03;;;14.70;74.10;;;;;;5010031;28;20460;-46
2022/05/22 02:55:46;;;;;;;4.73;3.03;;;14.70;74.30;;;;;;5012143;28;20468;-46
2022/05/22 02:58:13;;;;;;;3.57;3.27;;;14.70;74.80;;;;;;5009649;28;20493;-46
2022/05/22 03:00:40;;;;;;;3.53;3.23;;;14.60;74.90;;;;;;4995976;28;20448;-46
2022/05/22 03:03:07;;;;;;;4.60;3.07;;;14.60;75.00;;;;;;5012442;28;20460;-46
2022/05/22 03:08:39;;;;;;;4.70;2.90;;;14.50;75.10;;;;;;4954141;28;20491;-46
2022/05/22 03:11:06;;;;;;;3.30;3.00;;;14.50;75.30;;;;;;4948375;28;20529;-46
2022/05/22 03:13:34;;;;;;;3.97;3.50;;;14.50;75.00;;;;;;4978834;28;20475;-46
2022/05/22 03:16:00;;;;;;;3.10;2.90;;;14.40;75.20;;;;;;5006667;28;20545;-46
2022/05/22 03:18:27;;;;;;;4.90;3.00;;;14.40;75.80;;;;;;5013344;28;20496;-46
2022/05/22 03:20:54;;;;;;;4.20;3.57;;;14.40;75.90;;;;;;5011363;28;20467;-46
2022/05/22 03:23:21;;;;;;;5.30;4.27;;;14.50;75.90;;;;;;5011476;28;21025;-46
2022/05/22 03:25:48;;;;;;;7.50;3.80;;;14.50;76.00;;;;;;5011679;28;20464;-46
2022/05/22 03:28:16;;;;;;;3.70;3.40;;;14.40;76.00;;;;;;5009189;28;20478;-47
2022/05/22 03:30:43;;;;;;;4.00;3.17;;;14.40;76.30;;;;;;5012777;28;20494;-46
2022/05/22 03:33:10;;;;;;;4.07;3.70;;;14.40;76.40;;;;;;5009739;28;20473;-46
2022/05/22 03:35:37;;;;;;;3.83;3.23;;;14.30;76.60;;;;;;5009884;28;20472;-46
2022/05/22 03:38:04;;;;;;;6.00;4.43;;;14.40;76.60;;;;;;5012830;28;20495;-46
2022/05/22 03:40:31;;;;;;;7.40;3.50;;;14.40;76.50;;;;;;5009436;28;20921;-46
2022/05/22 03:42:59;;;;;;;3.67;3.37;;;14.30;76.50;;;;;;5007876;28;20887;-46
2022/05/22 03:45:26;;;;;;;3.70;3.30;;;14.30;76.60;;;;;;5009289;28;20550;-46
2022/05/22 03:47:54;;;;;;;4.00;3.13;;;14.30;76.50;;;;;;5012395;28;20464;-46
2022/05/22 03:50:24;;;;;;;5.37;3.27;;;14.30;76.30;;;;;;5009193;28;20478;-46
2022/05/22 03:52:51;;;;;;;3.63;3.17;;;14.30;76.20;;;;;;5011110;28;20850;-46
2022/05/22 03:55:18;;;;;;;4.27;3.17;;;14.30;76.20;;;;;;5008935;28;20476;-46
2022/05/22 03:57:46;;;;;;;4.33;3.93;;;14.20;76.40;;;;;;5009819;28;20582;-46
2022/05/22 04:00:15;;;;;;;3.83;3.53;;;14.20;76.40;;;;;;5012472;28;20463;-46
2022/05/22 04:02:43;;;;;;;4.13;2.90;;;14.20;76.40;;;;;;5012431;28;20455;-47
2022/05/22 04:05:10;;;;;;;3.83;3.20;;;14.20;76.50;;;;;;5009428;28;20455;-47
2022/05/22 04:07:38;;;;;;;5.80;3.57;;;14.20;76.70;;;;;;5012435;28;20745;-47
2022/05/22 04:10:07;;;;;;;3.40;3.10;;;14.20;76.70;;;;;;5012777;28;20836;-47
2022/05/22 04:12:34;;;;;;;3.27;2.97;;;14.30;76.60;;;;;;5011468;28;20494;-47
2022/05/22 04:15:00;;;;;;;6.80;4.03;;;14.30;76.50;;;;;;5014670;28;20497;-47
2022/05/22 04:17:27;;;;;;;5.13;3.60;;;14.20;76.60;;;;;;5009300;28;20935;-47
2022/05/22 04:19:54;;;;;;;4.73;3.30;;;14.20;76.90;;;;;;5009587;28;20950;-47
2022/05/22 04:22:21;;;;;;;4.40;3.77;;;14.20;77.10;;;;;;4990794;28;20938;-47
2022/05/22 04:27:40;;;;;;;5.53;3.30;;;14.20;77.20;;;;;;5009183;28;20455;-47
2022/05/22 04:30:10;;;;;;;4.33;3.87;;;14.20;77.30;;;;;;5010136;28;20487;-47
2022/05/22 04:32:37;;;;;;;4.57;3.60;;;14.20;77.40;;;;;;5013519;28;20484;-46
2022/05/22 04:35:04;;;;;;;8.37;4.07;;;14.30;77.20;;;;;;4991690;28;20804;-47
2022/05/22 04:37:30;;;;;;;4.43;3.90;;;14.30;77.20;;;;;;4994774;28;20470;-47
2022/05/22 04:39:57;;;;;;;3.40;2.90;;;14.30;77.30;;;;;;5008462;28;20471;-47
2022/05/22 04:42:24;;;;;;;3.70;3.30;;;14.30;77.10;;;;;;5010202;28;20468;-47
2022/05/22 04:44:51;;;;;;;9.37;3.50;;;14.40;77.10;;;;;;5007642;28;20460;-47
2022/05/22 04:47:17;;;;;;;4.00;3.57;;;14.40;76.90;;;;;;5005596;28;20468;-47
2022/05/22 04:49:48;;;;;;;10.53;4.13;;;14.40;77.00;;;;;;5005190;28;20896;-47
2022/05/22 04:52:15;;;;;;;5.90;3.70;;;14.50;77.10;;;;;;4988280;28;20460;-47
2022/05/22 04:54:41;;;;;;;4.73;4.10;;;14.50;77.10;;;;;;4985909;28;20488;-47
2022/05/22 04:57:08;;;;;;;6.57;3.93;;;14.50;77.10;;;;;;5008398;28;20478;-47
2022/05/22 04:59:35;;;;;;;5.30;3.33;;;14.60;77.10;;;;;;5005340;28;20491;-47
2022/05/22 05:02:02;;;;;;;3.73;3.43;;;14.60;77.20;;;;;;4987098;28;20461;-47
2022/05/22 05:04:29;;;;;;;3.97;3.33;;;14.60;77.20;;;;;;5006904;28;20460;-47
2022/05/22 05:06:56;;;;;;;3.43;3.13;;;14.70;77.10;;;;;;5006265;28;20844;-47
2022/05/22 05:09:24;;;;;;;4.33;3.50;;;14.70;77.30;;;;;;5003782;28;20455;-47
2022/05/22 05:11:50;;;;;;;3.60;3.30;;;14.80;77.10;;;;;;5009236;28;20468;-47
2022/05/22 05:14:17;;;;;;;4.23;3.80;;;14.90;77.10;;;;;;5006325;28;20482;-47
2022/05/22 05:16:44;;;;;;;7.53;3.90;;;14.90;77.10;;;;;;5004455;28;20467;-47
2022/05/22 05:19:11;;;;;;;3.97;3.57;;;14.90;77.10;;;;;;5006149;28;20488;-47
2022/05/22 05:21:37;;;;;;;5.73;4.63;;;14.90;77.20;;;;;;5006221;28;20456;-47
2022/05/22 05:24:04;;;;;;;5.97;4.57;;;15.00;77.30;;;;;;5004564;28;20992;-47
2022/05/22 05:26:31;;;;;;;4.80;3.10;;;15.00;77.30;;;;;;4988413;28;20460;-47
2022/05/22 05:28:58;;;;;;;5.53;3.93;;;15.10;77.40;;;;;;5003179;28;20463;-47
2022/05/22 05:31:24;;;;;;;3.67;3.37;;;15.10;77.30;;;;;;5004747;28;20489;-47
2022/05/22 05:33:52;;;;;;;4.23;3.50;;;15.20;77.30;;;;;;5007253;28;20472;-47
2022/05/22 05:36:19;;;;;;;4.23;3.83;;;15.20;77.10;;;;;;5002677;28;20464;-43
2022/05/22 05:38:46;;;;;;;7.27;4.20;;;15.20;77.30;;;;;;5002455;28;20491;-44
2022/05/22 05:41:24;;;;;;;5.90;5.07;;;15.30;77.30;;;;;;4999631;28;20566;-44
2022/05/22 05:43:50;;;;;;;4.30;3.90;;;15.40;76.90;;;;;;4997270;28;20460;-44
2022/05/22 05:46:17;;;;;;;5.13;4.40;;;15.40;76.90;;;;;;4998106;28;20500;-44
2022/05/22 05:48:44;;;;;;;4.73;4.03;;;15.50;76.20;;;;;;4998486;28;20480;-44
2022/05/22 05:51:13;;;;;;;7.77;4.30;;;15.50;74.60;;;;;;4997287;28;21040;-45
2022/05/22 05:53:40;;;;;;;8.73;4.33;;;15.50;72.80;;;;;;5000971;28;20511;-44
2022/05/22 05:56:07;;;;;;;6.93;4.00;;;15.60;72.80;;;;;;4999870;28;20839;-44
2022/05/22 05:58:48;;;;;;;4.70;4.17;;;15.70;72.80;;;;;;4999026;28;21211;-44
2022/05/22 06:01:17;;;;;;;4.63;3.97;;;15.90;71.80;;;;;;5001226;28;20468;-44
2022/05/22 06:03:44;;;;;;;5.63;3.40;;;16.00;71.20;;;;;;4995980;28;20452;-45
2022/05/22 06:06:13;;;;;;;6.40;4.43;;;16.10;71.50;;;;;;4997586;28;20464;-44
2022/05/22 06:08:41;;;;;;;7.07;4.63;;;16.10;71.80;;;;;;5001380;28;20973;-44
2022/05/22 06:11:08;;;;;;;6.93;6.30;;;16.20;71.40;;;;;;4997527;28;20957;-44
2022/05/22 06:13:39;;;;;;;7.20;4.00;;;16.40;71.00;;;;;;4981832;28;20470;-44
2022/05/22 06:16:07;;;;;;;6.97;4.73;;;16.50;71.00;;;;;;4983469;28;20472;-46
2022/05/22 06:18:35;;;;;;;7.33;4.97;;;16.50;70.80;;;;;;5003669;28;20492;-48
2022/05/22 06:21:14;;;;;;;5.10;4.27;;;16.60;69.90;;;;;;4990677;28;20504;-47
2022/05/22 06:23:40;;;;;;;7.40;5.17;;;16.60;70.00;;;;;;5006791;28;20976;-47
2022/05/22 06:26:09;;;;;;;6.40;4.90;;;16.70;69.60;;;;;;5009560;28;20456;-47
2022/05/22 06:28:37;;;;;;;7.20;5.27;;;16.70;69.20;;;;;;4997623;28;20824;-47
2022/05/22 06:31:06;;;;;;;5.70;4.40;;;16.80;69.20;;;;;;5013375;28;20942;-46
2022/05/22 06:33:34;;;;;;;7.13;4.07;;;16.80;69.40;;;;;;5014108;28;20476;-46
2022/05/22 06:36:09;;;;;;;4.90;4.40;;;16.90;69.70;;;;;;5009993;28;20839;-47
2022/05/22 06:41:22;;;;;;;5.73;4.73;;;17.20;68.40;;;;;;5012454;28;20471;-47
2022/05/22 06:43:51;;;;;;;7.17;4.53;;;17.30;68.70;;;;;;5012963;28;20462;-47
2022/05/22 06:46:24;;;;;;;5.60;4.33;;;17.40;68.30;;;;;;5009691;28;20452;-47
2022/05/22 06:48:51;;;;;;;5.10;4.43;;;17.50;67.80;;;;;;5012581;28;20996;-46
2022/05/22 06:51:18;;;;;;;4.67;3.93;;;17.60;67.50;;;;;;5013559;28;20606;-46
2022/05/22 06:53:45;;;;;;;7.10;4.97;;;17.70;67.60;;;;;;4993878;28;20941;-46
2022/05/22 06:56:11;;;;;;;8.00;4.20;;;17.90;67.60;;;;;;5015702;28;20547;-47
2022/05/22 06:58:38;;;;;;;7.10;4.00;;;18.00;66.90;;;;;;5010479;28;20498;-47
2022/05/22 07:01:05;;;;;;;6.80;4.50;;;18.10;65.10;;;;;;5013867;28;20843;-47
2022/05/22 07:03:35;;;;;;;4.70;4.30;;;18.20;64.70;;;;;;5005587;28;20471;-46
2022/05/22 07:06:02;;;;;;;5.70;4.03;;;18.40;65.10;;;;;;5014221;28;20456;-46
2022/05/22 07:08:28;;;;;;;5.23;3.97;;;18.60;64.40;;;;;;4995590;28;20541;-46
2022/05/22 07:13:40;;;;;;;5.07;3.53;;;18.90;63.00;;;;;;5015247;28;20466;-46
2022/05/22 07:16:07;;;;;;;3.40;3.00;;;19.00;63.00;;;;;;5012686;28;20486;-46
2022/05/22 07:18:51;;;;;;;3.73;3.23;;;19.20;62.60;;;;;;5012630;28;20481;-47
2022/05/22 07:21:18;;;;;;;4.13;3.10;;;19.40;62.20;;;;;;4987928;28;20455;-41
2022/05/22 07:23:45;;;;;;;7.13;3.40;;;19.60;62.00;;;;;;5007173;28;20859;-43
2022/05/22 07:26:16;;;;;;;5.50;3.03;;;19.70;60.00;;;;;;5005896;28;20460;-43
2022/05/22 07:28:43;;;;;;;6.90;3.27;;;19.90;60.00;;;;;;5008373;28;20858;-43
2022/05/22 07:31:14;;;;;;;3.90;3.50;;;20.10;59.80;;;;;;5004018;28;20520;-43
2022/05/22 07:34:07;;;;;;;6.33;2.87;;;20.30;59.70;;;;;;5011318;28;20491;-43
2022/05/22 07:36:33;;;;;;;4.40;2.70;;;20.40;59.30;;;;;;5003322;28;20494;-44
2022/05/22 07:39:00;;;;;;;4.60;2.80;;;20.60;59.50;;;;;;5004617;28;20484;-47
2022/05/22 07:41:33;;;;;;;3.97;2.60;;;20.90;59.20;;;;;;4994280;28;20486;-47
2022/05/22 07:44:00;;;;;;;2.50;2.30;;;21.00;58.30;;;;;;5013996;28;20712;-47
2022/05/22 07:46:28;;;;;;;3.20;2.50;;;21.20;55.70;;;;;;5013260;28;20487;-47
2022/05/22 07:48:54;;;;;;;3.20;2.43;;;21.30;55.70;;;;;;5013218;28;20473;-47
2022/05/22 07:51:21;;;;;;;3.30;2.90;;;21.40;55.40;;;;;;5005247;28;20459;-42
2022/05/22 07:53:50;;;;;;;4.70;2.70;;;21.60;55.30;;;;;;4990792;28;20555;-42
2022/05/22 07:56:21;;;;;;;4.70;2.90;;;21.70;55.20;;;;;;5005298;28;20468;-43
2022/05/22 07:58:47;;;;;;;4.60;2.10;;;21.90;55.30;;;;;;4984105;28;20491;-42
2022/05/22 08:01:14;;;;;;;4.83;3.07;;;22.10;54.20;;;;;;4999096;28;20552;-42
2022/05/22 08:03:41;;;;;;;5.60;2.37;;;22.20;53.90;;;;;;4998265;28;22040;-42
2022/05/22 08:06:08;;;;;;;2.80;2.00;;;22.40;53.30;;;;;;5005031;28;20589;-41
2022/05/22 08:08:35;;;;;;;4.07;2.17;;;22.60;52.80;;;;;;5005044;28;20547;-41
2022/05/22 08:11:08;;;;;;;5.20;2.67;;;22.70;52.40;;;;;;5004506;28;20464;-42
2022/05/22 08:13:35;;;;;;;2.73;2.03;;;22.80;52.40;;;;;;5005025;28;20966;-42
2022/05/22 08:16:02;;;;;;;3.80;2.13;;;23.00;51.10;;;;;;5003483;28;20460;-42
2022/05/22 08:18:29;;;;;;;4.40;2.20;;;23.10;50.80;;;;;;5005345;28;20483;-42
2022/05/22 08:20:56;;;;;;;4.20;2.20;;;23.20;49.20;;;;;;4993547;28;20561;-42
2022/05/22 08:23:23;;;;;;;3.03;2.10;;;23.30;49.90;;;;;;4994395;28;20448;-42
2022/05/22 08:25:50;;;;;;;2.67;2.00;;;23.40;49.30;;;;;;5008781;28;20538;-42
2022/05/22 08:28:18;;;;;;;7.53;2.80;;;23.50;49.60;;;;;;5009427;28;20460;-42
2022/05/22 08:30:45;;;;;;;3.30;2.10;;;23.60;49.90;;;;;;5008258;28;20479;-42
2022/05/22 08:33:13;;;;;;;3.47;2.30;;;23.70;49.70;;;;;;5010113;28;20827;-47
2022/05/22 08:35:42;;;;;;;6.80;2.20;;;23.80;50.10;;;;;;5009996;28;20771;-46
2022/05/22 08:38:09;;;;;;;5.03;2.03;;;23.90;49.00;;;;;;5008704;28;20467;-43
2022/05/22 08:40:46;;;;;;;3.07;2.20;;;24.00;48.10;;;;;;5005680;28;20814;-43
2022/05/22 08:43:29;;;;;;;3.70;2.00;;;24.10;48.30;;;;;;5008885;28;20953;-43
2022/05/22 08:46:32;;;;;;;4.37;2.37;;;24.30;48.60;;;;;;5006576;28;20531;-44
2022/05/22 08:49:24;;;;;;;2.83;2.20;;;24.40;48.80;;;;;;4962594;28;20476;-44
2022/05/22 08:51:58;;;;;;;4.80;2.33;;;24.60;47.60;;;;;;5005784;28;20487;-44
2022/05/22 08:54:36;;;;;;;4.80;2.00;;;24.70;47.10;;;;;;5011393;28;20455;-44
2022/05/22 09:00:04;;;;;;;4.90;1.80;;;24.90;47.90;;;;;;5004863;28;20570;-45
2022/05/22 09:02:52;;;;;;;2.00;1.60;;;25.00;46.70;;;;;;5009285;28;20485;-42
2022/05/22 09:05:25;;;;;;;5.03;1.80;;;25.10;47.00;;;;;;5007032;28;20535;-42
2022/05/22 09:08:03;;;;;;;2.70;1.70;;;25.20;45.70;;;;;;5008755;28;20495;-43
2022/05/22 09:11:03;;;;;;;2.40;2.20;;;25.30;45.20;;;;;;4990054;28;20455;-43
2022/05/22 09:13:49;;;;;;;4.87;2.00;;;25.40;45.80;;;;;;5016971;28;20487;-47
2022/05/22 09:16:33;;;;;;;4.00;1.97;;;25.60;46.00;;;;;;5011823;28;20503;-47
2022/05/22 09:19:10;;;;;;;3.17;1.77;;;25.70;45.80;;;;;;4999940;28;20513;-47
2022/05/22 09:21:49;;;;;;;2.00;1.37;;;25.60;45.30;;;;;;5013810;28;20467;-47
2022/05/22 09:24:45;;;;;;;4.73;2.20;;;25.60;44.30;;;;;;5012317;28;20495;-47
2022/05/22 09:27:40;;;;;;;2.00;1.37;;;25.60;44.60;;;;;;5014424;28;20456;-47
2022/05/22 09:30:18;;;;;;;2.70;2.00;;;25.70;44.40;;;;;;5013535;28;20509;-48
2022/05/22 09:32:51;;;;;;;1.77;1.60;;;25.80;44.10;;;;;;4997491;28;20503;-48
2022/05/22 09:35:32;;;;;;;3.60;1.60;;;26.00;44.10;;;;;;4997918;28;20456;-48
2022/05/22 09:38:07;;;;;;;2.17;1.33;;;26.10;43.70;;;;;;5010068;28;20483;-48
2022/05/22 09:40:48;;;;;;;7.37;2.30;;;26.30;43.60;;;;;;5010064;28;20490;-47
2022/05/22 09:43:33;;;;;;;3.47;1.67;;;26.40;43.50;;;;;;4992013;28;20559;-48
2022/05/22 09:46:09;;;;;;;2.63;1.87;;;26.60;43.10;;;;;;5016056;28;20466;-48
2022/05/22 09:49:08;;;;;;;4.40;1.93;;;26.90;42.90;;;;;;5011368;28;20952;-48
2022/05/22 09:51:56;;;;;;;4.80;2.03;;;27.20;42.70;;;;;;4991434;28;20550;-48
2022/05/22 09:54:32;;;;;;;2.83;1.77;;;27.40;41.90;;;;;;4997745;28;20460;-48
2022/05/22 09:57:27;;;;;;;3.20;2.30;;;27.60;41.60;;;;;;5010852;28;20567;-45
2022/05/22 10:00:08;;;;;;;3.40;1.83;;;27.80;40.10;;;;;;5008579;28;20228;-45
2022/05/22 10:02:40;;;;;;;3.40;2.13;;;28.00;40.20;;;;;;5007850;28;20211;-42
2022/05/22 10:05:40;;;;;;;1.87;1.60;;;28.20;39.80;;;;;;5009847;28;20204;-43
2022/05/22 10:08:58;;;;;;;3.60;1.87;;;28.10;38.80;;;;;;5011038;28;20725;-45
2022/05/22 10:12:02;;;;;;;2.43;2.20;;;28.10;38.60;;;;;;4959924;28;20648;-45
2022/05/22 10:15:20;;;;;;;4.40;2.27;;;28.20;39.30;;;;;;5005568;28;20196;-44
2022/05/22 10:18:02;;;;;;;2.33;1.90;;;28.40;39.20;;;;;;4930776;29;20217;-45
2022/05/22 10:20:41;;;;;;;2.25;1.63;;;28.50;39.50;;;;;;5001545;28;20346;-45
2022/05/22 10:23:20;;;;;;;2.10;1.73;;;28.50;38.60;;;;;;5007865;28;20576;-45
2022/05/22 10:26:08;;;;;;;3.00;1.30;;;28.20;39.30;;;;;;5009543;28;20211;-45
2022/05/22 10:28:43;;;;;;;2.53;1.67;;;28.10;40.70;;;;;;5007117;28;20745;-45
2022/05/22 10:31:20;;;;;;;5.50;1.90;;;27.90;39.80;;;;;;5008790;28;20315;-45
2022/05/22 10:33:52;;;;;;;2.33;1.40;;;27.70;39.10;;;;;;4984597;28;20572;-45
2022/05/22 10:36:24;;;;;;;2.13;1.77;;;27.40;40.90;;;;;;4986711;28;20205;-45
2022/05/22 10:39:05;;;;;;;3.20;1.80;;;27.10;40.40;;;;;;5007160;28;20831;-45
2022/05/22 10:44:49;;;;;;;2.10;1.67;;;26.30;41.30;;;;;;5008452;28;20467;-45
2022/05/22 10:47:45;;;;;;;5.20;1.80;;;25.80;42.60;;;;;;5007111;28;20464;-44
2022/05/22 10:50:19;;;;;;;4.33;2.00;;;25.40;43.20;;;;;;4992987;28;20473;-44
2022/05/22 10:52:47;;;;;;;3.97;1.67;;;25.10;43.80;;;;;;4982340;28;20460;-44
2022/05/22 10:55:39;;;;;;;2.13;1.40;;;24.80;43.30;;;;;;5003115;28;20487;-44
2022/05/22 10:58:27;;;;;;;2.40;1.60;;;24.50;44.20;;;;;;5009756;28;20501;-44
2022/05/22 11:00:59;;;;;;;5.03;2.67;;;24.40;45.90;;;;;;4968787;28;20913;-44
2022/05/22 11:03:29;;;;;;;2.47;1.60;;;24.30;45.60;;;;;;5002510;28;20470;-44
2022/05/22 11:05:58;;;;;;;1.80;1.63;;;24.10;45.30;;;;;;5005849;28;20816;-43
2022/05/22 11:08:32;;;;;;;3.47;1.90;;;24.00;45.70;;;;;;5011754;28;20455;-47
2022/05/22 11:11:16;;;;;;;2.70;1.60;;;23.90;46.60;;;;;;5016837;28;20463;-47
2022/05/22 11:13:43;;;;;;;1.40;1.30;;;23.80;46.90;;;;;;5014759;28;20546;-46
2022/05/22 11:16:25;;;;;;;3.00;1.80;;;23.70;46.90;;;;;;5010766;28;20467;-46
2022/05/22 11:19:10;;;;;;;4.07;1.30;;;23.60;45.60;;;;;;4996934;28;20587;-46
2022/05/22 11:22:03;;;;;;;2.07;1.50;;;23.50;46.20;;;;;;5015123;28;20510;-46
2022/05/22 11:24:53;;;;;;;3.73;1.80;;;23.30;46.70;;;;;;5017157;28;20515;-46
2022/05/22 11:28:04;;;;;;;3.53;1.80;;;23.20;47.10;;;;;;5016453;28;20460;-46
2022/05/22 11:30:59;;;;;;;2.50;2.00;;;23.00;47.20;;;;;;4996052;28;20543;-46
2022/05/22 11:33:58;;;;;;;1.77;1.50;;;23.00;46.00;;;;;;5015748;28;20478;-46
2022/05/22 11:36:50;;;;;;;1.97;1.77;;;23.00;46.10;;;;;;5016830;28;20928;-46
2022/05/22 11:39:47;;;;;;;2.23;1.60;;;23.10;46.80;;;;;;5012105;28;20953;-47
2022/05/22 11:42:25;;;;;;;2.13;1.80;;;23.20;45.30;;;;;;5014765;28;20463;-47
2022/05/22 11:45:00;;;;;;;4.80;1.90;;;23.30;45.10;;;;;;5017515;28;20936;-47
2022/05/22 11:47:51;;;;;;;1.53;1.43;;;23.30;46.50;;;;;;4998255;28;20956;-47
2022/05/22 11:50:38;;;;;;;3.47;1.90;;;23.20;45.90;;;;;;4998885;28;20974;-47
2022/05/22 11:53:25;;;;;;;2.50;1.70;;;23.10;46.30;;;;;;5018348;28;20464;-47
2022/05/22 11:56:23;;;;;;;3.13;1.90;;;23.10;47.70;;;;;;4999217;28;20687;-47
2022/05/22 11:59:17;;;;;;;3.13;1.87;;;23.10;45.90;;;;;;5012947;28;20519;-47
2022/05/22 12:02:07;;;;;;;3.27;1.77;;;23.10;45.90;;;;;;5016676;28;20458;-47
2022/05/22 12:05:11;;;;;;;2.90;1.77;;;23.10;46.10;;;;;;5018675;28;20486;-47
2022/05/22 12:08:17;;;;;;;2.63;1.73;;;23.30;48.20;;;;;;4999039;28;20522;-47
2022/05/22 12:10:55;;;;;;;3.70;1.60;;;23.30;47.70;;;;;;4948610;28;20483;-47
2022/05/22 12:13:45;;;;;;;1.87;1.60;;;23.30;46.40;;;;;;5000824;28;20483;-47
2022/05/22 12:16:24;;;;;;;3.43;2.43;;;23.40;47.30;;;;;;5018940;28;20490;-47
2022/05/22 12:19:00;;;;;;;3.80;2.03;;;23.40;46.10;;;;;;5017545;28;20455;-47
2022/05/22 12:21:39;;;;;;;2.60;1.80;;;23.40;47.20;;;;;;5019730;28;20558;-47
2022/05/22 12:24:28;;;;;;;2.27;1.83;;;23.40;47.30;;;;;;5022568;28;20510;-47
2022/05/22 12:26:55;;;;;;;4.20;1.93;;;23.50;47.50;;;;;;5019636;28;20459;-47
2022/05/22 12:29:33;;;;;;;4.40;2.10;;;23.40;47.00;;;;;;5018794;28;20481;-47
2022/05/22 12:32:14;;;;;;;2.90;1.70;;;23.50;46.30;;;;;;5020537;28;20491;-46
2022/05/22 12:34:47;;;;;;;4.77;2.27;;;23.50;47.20;;;;;;5000874;28;20536;-46
2022/05/22 12:37:39;;;;;;;4.80;1.90;;;23.40;46.80;;;;;;5017277;28;20456;-47
2022/05/22 12:40:22;;;;;;;2.10;1.90;;;23.50;46.00;;;;;;5021353;28;20529;-47
2022/05/22 12:42:52;;;;;;;3.23;1.97;;;23.50;46.60;;;;;;5015690;28;20519;-47
2022/05/22 12:45:21;;;;;;;2.47;1.90;;;23.50;46.00;;;;;;5015656;28;20463;-47
2022/05/22 12:47:50;;;;;;;2.93;2.07;;;23.60;45.60;;;;;;5002195;28;20526;-47
2022/05/22 12:50:45;;;;;;;3.60;2.60;;;23.60;46.30;;;;;;5020748;28;20459;-47
2022/05/22 12:53:20;;;;;;;4.07;2.50;;;23.70;46.00;;;;;;5023177;28;20462;-47
2022/05/22 12:55:47;;;;;;;2.47;1.80;;;23.70;45.10;;;;;;5005722;28;20531;-47
2022/05/22 12:58:33;;;;;;;4.33;2.50;;;23.70;45.40;;;;;;5015252;28;20470;-47
2022/05/22 13:01:00;;;;;;;6.60;2.20;;;23.70;45.50;;;;;;4997934;28;20498;-47
2022/05/22 13:03:41;;;;;;;2.07;1.87;;;23.70;45.00;;;;;;5019299;28;20456;-47
2022/05/22 13:06:18;;;;;;;2.83;1.43;;;23.70;45.20;;;;;;5022560;28;20474;-47
2022/05/22 13:08:56;;;;;;;3.53;2.17;;;23.80;47.30;;;;;;5025069;28;20459;-47
2022/05/22 13:11:41;;;;;;;2.63;2.00;;;23.80;47.20;;;;;;5022625;28;20483;-47
2022/05/22 13:14:32;;;;;;;5.10;2.50;;;23.90;47.50;;;;;;5009394;28;20443;-47
2022/05/22 13:16:59;;;;;;;4.23;2.30;;;23.90;46.50;;;;;;5026725;28;20463;-47
2022/05/22 13:19:32;;;;;;;2.40;2.03;;;23.80;46.30;;;;;;5023331;28;20972;-47
2022/05/22 13:22:11;;;;;;;3.80;2.27;;;23.90;45.80;;;;;;5021502;28;20526;-47
2022/05/22 13:24:51;;;;;;;3.20;2.30;;;24.00;46.70;;;;;;5006469;28;20470;-47
2022/05/22 13:27:46;;;;;;;3.13;1.93;;;24.00;46.30;;;;;;5022320;28;20546;-47
2022/05/22 13:30:26;;;;;;;3.00;2.30;;;24.00;45.40;;;;;;5026712;28;20483;-47
2022/05/22 13:33:01;;;;;;;6.60;2.60;;;24.10;45.60;;;;;;5022989;28;20534;-47
2022/05/22 13:35:36;;;;;;;2.20;2.00;;;24.10;44.80;;;;;;5024868;28;20451;-47
2022/05/22 13:38:09;;;;;;;2.30;2.10;;;24.20;45.90;;;;;;5006759;28;20470;-47